createdAt,value
2023-01-21T00:01:33.856Z,11.75
2023-01-21T00:04:01.558Z,12.70
2023-01-21T00:06:29.098Z,11.75
2023-01-21T00:08:59.525Z,11.63
2023-01-21T00:11:27.940Z,10.38
2023-01-21T00:13:55.552Z,10.20
2023-01-21T00:16:23.121Z,9.75
2023-01-21T00:18:50.752Z,9.52
2023-01-21T00:21:18.398Z,9.82
2023-01-21T00:23:46.379Z,10.30
2023-01-21T00:26:15.266Z,9.75
2023-01-21T00:28:45.147Z,9.23
2023-01-21T00:31:13.714Z,10.32
2023-01-21T00:33:42.632Z,8.27
2023-01-21T00:36:18.342Z,8.38
2023-01-21T00:38:49.417Z,9.43
2023-01-21T00:41:17.557Z,8.90
2023-01-21T00:43:48.311Z,9.10
2023-01-21T00:46:16.201Z,9.60
2023-01-21T00:48:43.904Z,10.20
2023-01-21T00:51:13.926Z,9.80
2023-01-21T00:53:42.215Z,10.20
2023-01-21T00:56:14.611Z,9.90
2023-01-21T00:58:43.645Z,9.80
2023-01-21T01:01:15.108Z,9.15
2023-01-21T01:03:45.973Z,9.43
2023-01-21T01:06:20.959Z,8.98
2023-01-21T01:08:55.522Z,7.45
2023-01-21T01:11:27.837Z,9.60
2023-01-21T01:13:59.118Z,9.60
2023-01-21T01:16:35.808Z,8.70
2023-01-21T01:19:04.077Z,10.40
2023-01-21T01:21:31.659Z,8.02
2023-01-21T01:24:03.341Z,9.55
2023-01-21T01:26:33.398Z,10.27
2023-01-21T01:29:01.659Z,10.00
2023-01-21T01:31:30.436Z,8.85
2023-01-21T01:33:58.300Z,7.78
2023-01-21T01:36:41.661Z,9.93
2023-01-21T01:39:09.469Z,9.35
2023-01-21T01:41:40.474Z,9.25
2023-01-21T01:44:45.909Z,9.02
2023-01-21T01:47:15.020Z,9.63
2023-01-21T01:49:43.049Z,9.18
2023-01-21T01:52:14.122Z,9.02
2023-01-21T01:54:47.229Z,8.73
2023-01-21T01:57:19.103Z,8.85
2023-01-21T01:59:48.331Z,8.55
2023-01-21T02:02:19.657Z,7.43
2023-01-21T02:04:57.185Z,8.43
2023-01-21T02:07:26.545Z,8.18
2023-01-21T02:09:55.041Z,8.70
2023-01-21T02:12:25.838Z,8.23
2023-01-21T02:14:53.957Z,8.40
2023-01-21T02:17:28.575Z,8.32
2023-01-21T02:20:17.834Z,8.93
2023-01-21T02:23:26.879Z,8.05
2023-01-21T02:25:57.239Z,9.15
2023-01-21T02:29:05.648Z,7.28
2023-01-21T02:32:14.098Z,7.70
2023-01-21T02:34:41.882Z,8.35
2023-01-21T02:37:14.060Z,7.53
2023-01-21T02:40:13.645Z,7.90
2023-01-21T02:43:12.466Z,8.23
2023-01-21T02:45:46.989Z,7.07
2023-01-21T02:48:20.037Z,7.63
2023-01-21T02:50:53.730Z,8.35
2023-01-21T02:53:31.882Z,8.23
2023-01-21T02:56:08.144Z,7.60
2023-01-21T02:58:41.404Z,6.85
2023-01-21T03:01:32.069Z,7.13
2023-01-21T03:04:29.899Z,7.90
2023-01-21T03:07:10.212Z,7.45
2023-01-21T03:09:38.076Z,8.85
2023-01-21T03:12:25.314Z,7.20
2023-01-21T03:15:23.500Z,7.03
2023-01-21T03:18:13.074Z,7.30
2023-01-21T03:20:43.391Z,6.57
2023-01-21T03:23:18.398Z,7.32
2023-01-21T03:25:48.592Z,8.02
2023-01-21T03:28:21.452Z,7.80
2023-01-21T03:30:57.766Z,8.02
2023-01-21T03:33:27.582Z,7.95
2023-01-21T03:35:57.579Z,7.63
2023-01-21T03:38:31.595Z,8.88
2023-01-21T03:41:07.489Z,7.43
2023-01-21T03:43:35.646Z,8.10
2023-01-21T03:46:21.610Z,7.18
2023-01-21T03:49:02.776Z,6.90
2023-01-21T03:51:36.850Z,7.43
2023-01-21T03:54:04.713Z,6.82
2023-01-21T03:56:32.425Z,7.93
2023-01-21T03:59:00.116Z,6.38
2023-01-21T04:01:27.648Z,7.18
2023-01-21T04:03:55.351Z,7.72
2023-01-21T04:06:26.222Z,7.45
2023-01-21T04:09:04.295Z,7.60
2023-01-21T04:11:32.151Z,7.85
2023-01-21T04:14:02.452Z,7.65
2023-01-21T04:16:30.842Z,7.05
2023-01-21T04:18:58.544Z,7.10
2023-01-21T04:21:27.056Z,7.15
2023-01-21T04:23:55.970Z,6.75
2023-01-21T04:26:24.041Z,6.80
2023-01-21T04:28:55.170Z,6.35
2023-01-21T04:31:23.394Z,6.47
2023-01-21T04:33:51.099Z,6.32
2023-01-21T04:36:18.770Z,6.68
2023-01-21T04:38:46.482Z,7.50
2023-01-21T04:41:14.094Z,7.30
2023-01-21T04:43:41.767Z,7.97
2023-01-21T04:46:09.968Z,8.73
2023-01-21T04:48:37.643Z,7.35
2023-01-21T04:51:06.571Z,7.00
2023-01-21T04:53:34.284Z,6.75
2023-01-21T04:56:02.320Z,6.28
2023-01-21T04:58:30.170Z,7.28
2023-01-21T05:00:57.934Z,6.18
2023-01-21T05:03:28.333Z,6.95
2023-01-21T05:05:58.903Z,7.97
2023-01-21T05:08:26.561Z,7.43
2023-01-21T05:10:56.940Z,7.65
2023-01-21T05:13:24.691Z,7.85
2023-01-21T05:15:57.702Z,7.20
2023-01-21T05:18:26.352Z,6.72
2023-01-21T05:21:02.655Z,7.50
2023-01-21T05:23:31.751Z,6.15
2023-01-21T05:26:00.378Z,7.35
2023-01-21T05:28:28.259Z,6.68
2023-01-21T05:31:00.288Z,6.18
2023-01-21T05:33:32.953Z,6.32
2023-01-21T05:36:08.717Z,7.53
2023-01-21T05:38:36.430Z,6.38
2023-01-21T05:41:08.136Z,7.32
2023-01-21T05:43:36.703Z,6.88
2023-01-21T05:46:04.642Z,7.50
2023-01-21T05:48:35.721Z,7.60
2023-01-21T05:51:06.435Z,7.38
2023-01-21T05:53:54.190Z,7.30
2023-01-21T05:56:32.067Z,7.13
2023-01-21T05:59:02.974Z,6.65
2023-01-21T06:01:31.307Z,6.47
2023-01-21T06:03:59.102Z,6.65
2023-01-21T06:06:30.242Z,7.40
2023-01-21T06:08:57.876Z,6.95
2023-01-21T06:11:33.353Z,6.65
2023-01-21T06:14:06.896Z,6.20
2023-01-21T06:16:34.624Z,7.25
2023-01-21T06:19:02.288Z,6.68
2023-01-21T06:21:30.107Z,8.02
2023-01-21T06:24:02.618Z,6.70
2023-01-21T06:26:30.848Z,7.75
2023-01-21T06:28:58.703Z,6.95
2023-01-21T06:31:26.844Z,6.95
2023-01-21T06:33:58.589Z,6.95
2023-01-21T06:36:26.886Z,7.38
2023-01-21T06:38:54.553Z,9.48
2023-01-21T06:41:25.772Z,6.70
2023-01-21T06:43:59.473Z,7.30
2023-01-21T06:46:33.265Z,6.45
2023-01-21T06:49:01.327Z,7.53
2023-01-21T06:51:28.988Z,6.45
2023-01-21T06:53:57.340Z,7.72
2023-01-21T06:56:25.770Z,8.25
2023-01-21T06:58:58.439Z,7.22
2023-01-21T07:01:35.586Z,7.85
2023-01-21T07:04:08.036Z,8.13
2023-01-21T07:06:36.286Z,6.95
2023-01-21T07:09:07.967Z,7.22
2023-01-21T07:11:38.831Z,7.15
2023-01-21T07:14:13.538Z,7.38
2023-01-21T07:16:41.612Z,7.93
2023-01-21T07:19:09.469Z,6.85
2023-01-21T07:21:37.336Z,7.38
2023-01-21T07:24:05.449Z,7.40
2023-01-21T07:26:37.875Z,7.32
2023-01-21T07:29:09.228Z,8.07
2023-01-21T07:31:42.588Z,6.00
2023-01-21T07:34:11.316Z,6.78
2023-01-21T07:36:43.195Z,6.90
2023-01-21T07:39:12.240Z,7.78
2023-01-21T07:41:43.254Z,7.75
2023-01-21T07:44:12.716Z,7.47
2023-01-21T07:46:42.604Z,8.70
2023-01-21T07:49:33.583Z,8.15
2023-01-21T07:52:01.257Z,7.57
2023-01-21T07:54:29.074Z,8.60
2023-01-21T07:56:59.854Z,9.43
2023-01-21T07:59:30.208Z,7.18
2023-01-21T08:02:05.724Z,7.22
2023-01-21T08:04:39.704Z,8.07
2023-01-21T08:07:11.905Z,7.72
2023-01-21T08:09:41.333Z,6.80
2023-01-21T08:12:09.801Z,6.97
2023-01-21T08:14:38.694Z,7.00
2023-01-21T08:17:08.959Z,8.23
2023-01-21T08:19:36.885Z,8.00
2023-01-21T08:22:04.729Z,7.20
2023-01-21T08:24:33.934Z,8.90
2023-01-21T08:27:01.586Z,8.45
2023-01-21T08:29:29.347Z,7.60
2023-01-21T08:31:57.969Z,8.10
2023-01-21T08:34:28.804Z,8.30
2023-01-21T08:36:57.010Z,9.30
2023-01-21T08:39:29.025Z,8.25
2023-01-21T08:42:04.664Z,9.52
2023-01-21T08:44:32.290Z,8.70
2023-01-21T08:47:00.117Z,8.90
2023-01-21T08:49:27.875Z,9.27
2023-01-21T08:51:58.584Z,9.52
2023-01-21T08:54:27.048Z,9.90
2023-01-21T08:56:56.957Z,10.10
2023-01-21T08:59:28.782Z,10.68
2023-01-21T09:01:57.032Z,9.73
2023-01-21T09:04:27.267Z,8.85
2023-01-21T09:06:55.080Z,10.00
2023-01-21T09:09:22.892Z,11.25
2023-01-21T09:11:52.432Z,10.30
2023-01-21T09:14:21.541Z,10.10
2023-01-21T09:16:50.023Z,11.00
2023-01-21T09:19:18.155Z,9.65
2023-01-21T09:21:45.911Z,10.55
2023-01-21T09:24:13.621Z,12.20
2023-01-21T09:26:44.143Z,11.38
2023-01-21T09:29:12.121Z,11.65
2023-01-21T09:31:39.743Z,11.38
2023-01-21T09:34:09.741Z,13.80
2023-01-21T09:36:37.472Z,13.82
2023-01-21T09:39:06.099Z,14.00
2023-01-21T09:41:46.332Z,14.70
2023-01-21T09:44:23.685Z,15.13
2023-01-21T09:47:15.419Z,16.08
2023-01-21T09:49:52.395Z,15.23
2023-01-21T09:52:41.556Z,15.60
2023-01-21T09:55:23.662Z,15.55
2023-01-21T09:58:26.726Z,15.77
2023-01-21T10:01:08.588Z,16.58
2023-01-21T10:03:44.277Z,15.38
2023-01-21T10:06:12.696Z,14.65
2023-01-21T10:09:15.193Z,16.98
2023-01-21T10:11:56.005Z,16.02
2023-01-21T10:14:48.482Z,15.65
2023-01-21T10:17:38.565Z,17.08
2023-01-21T10:20:35.674Z,14.70
2023-01-21T10:23:19.115Z,15.38
2023-01-21T10:25:49.749Z,16.52
2023-01-21T10:28:30.527Z,16.55
2023-01-21T10:31:08.721Z,15.77
2023-01-21T10:33:36.626Z,15.88
2023-01-21T10:36:30.788Z,16.10
2023-01-21T10:39:07.180Z,15.60
2023-01-21T10:41:45.364Z,15.10
2023-01-21T10:44:40.323Z,14.63
2023-01-21T10:47:39.931Z,16.05
2023-01-21T10:50:17.194Z,15.43
2023-01-21T10:52:51.367Z,14.75
2023-01-21T10:55:40.104Z,15.05
2023-01-21T10:58:31.423Z,14.60
2023-01-21T11:01:03.497Z,14.38
2023-01-21T11:03:51.075Z,13.63
2023-01-21T11:06:21.371Z,12.93
2023-01-21T11:08:53.054Z,12.73
2023-01-21T11:11:35.673Z,11.43
2023-01-21T11:14:03.600Z,12.07
2023-01-21T11:16:45.481Z,13.07
2023-01-21T11:19:15.824Z,12.07
2023-01-21T11:22:20.897Z,12.75
2023-01-21T11:24:51.482Z,14.70
2023-01-21T11:27:38.373Z,13.23
2023-01-21T11:30:25.899Z,13.93
2023-01-21T11:33:14.574Z,13.05
2023-01-21T11:35:43.221Z,14.63
2023-01-21T11:38:30.446Z,15.65
2023-01-21T11:41:23.814Z,14.65
2023-01-21T11:43:53.809Z,14.38
2023-01-21T11:46:51.027Z,15.32
2023-01-21T11:49:26.240Z,13.30
2023-01-21T11:52:18.708Z,11.50
2023-01-21T11:54:47.645Z,15.18
2023-01-21T11:57:25.848Z,13.73
2023-01-21T11:59:56.890Z,13.50
2023-01-21T12:02:29.696Z,13.98
2023-01-21T12:05:00.100Z,14.65
2023-01-21T12:07:36.180Z,14.77
2023-01-21T12:10:14.082Z,11.43
2023-01-21T12:13:00.096Z,13.40
2023-01-21T12:16:04.267Z,14.27
2023-01-21T12:19:07.034Z,11.93
2023-01-21T12:22:00.390Z,10.10
2023-01-21T12:24:43.216Z,11.10
2023-01-21T12:27:35.935Z,12.75
2023-01-21T12:30:27.061Z,12.32
2023-01-21T12:33:26.585Z,11.50
2023-01-21T12:35:58.913Z,9.80
2023-01-21T12:38:32.569Z,11.63
2023-01-21T12:41:05.746Z,12.40
2023-01-21T12:43:50.048Z,11.02
2023-01-21T12:46:27.566Z,13.02
2023-01-21T12:49:36.645Z,11.23
2023-01-21T12:52:14.544Z,10.97
2023-01-21T12:54:57.702Z,10.85
2023-01-21T12:57:31.547Z,11.50
2023-01-21T13:00:03.978Z,10.25
2023-01-21T13:03:00.511Z,11.30
2023-01-21T13:05:35.146Z,11.13
2023-01-21T13:08:11.940Z,11.02
2023-01-21T13:10:44.381Z,10.57
2023-01-21T13:13:14.748Z,11.15
2023-01-21T13:15:46.057Z,10.18
2023-01-21T13:18:18.741Z,11.80
2023-01-21T13:20:55.218Z,10.73
2023-01-21T13:23:30.915Z,12.05
2023-01-21T13:26:12.843Z,12.82
2023-01-21T13:28:51.747Z,10.98
2023-01-21T13:31:48.927Z,10.40
2023-01-21T13:34:29.558Z,11.75
2023-01-21T13:37:19.219Z,10.63
2023-01-21T13:39:54.752Z,11.05
2023-01-21T13:42:44.284Z,11.35
2023-01-21T13:45:26.513Z,10.85
2023-01-21T13:48:18.485Z,11.63
2023-01-21T13:51:27.150Z,12.10
2023-01-21T13:54:21.952Z,13.95
2023-01-21T13:57:30.724Z,14.18
2023-01-21T14:00:09.262Z,11.18
2023-01-21T14:02:48.471Z,11.20
2023-01-21T14:05:31.034Z,11.55
2023-01-21T14:08:07.801Z,12.30
2023-01-21T14:11:03.541Z,11.65
2023-01-21T14:13:55.848Z,12.75
2023-01-21T14:16:44.276Z,10.80
2023-01-21T14:19:29.808Z,11.75
2023-01-21T14:22:06.796Z,11.52
2023-01-21T14:24:59.039Z,12.48
2023-01-21T14:27:58.879Z,12.98
2023-01-21T14:30:49.567Z,12.23
2023-01-21T14:33:21.723Z,11.60
2023-01-21T14:36:07.406Z,11.43
2023-01-21T14:39:02.443Z,12.30
2023-01-21T14:42:04.311Z,13.05
2023-01-21T14:44:50.058Z,12.18
2023-01-21T14:47:25.115Z,14.13
2023-01-21T14:49:54.357Z,13.02
2023-01-21T14:52:44.563Z,13.93
2023-01-21T14:55:38.438Z,14.23
2023-01-21T14:58:06.193Z,13.23
2023-01-21T15:00:35.891Z,13.77
2023-01-21T15:03:03.452Z,16.90
2023-01-21T15:05:36.541Z,14.00
2023-01-21T15:08:32.643Z,12.90
2023-01-21T15:11:05.411Z,13.13
2023-01-21T15:13:32.997Z,14.55
2023-01-21T15:16:07.675Z,13.27
2023-01-21T15:18:41.244Z,14.35
2023-01-21T15:21:34.202Z,13.90
2023-01-21T15:24:16.741Z,16.13
2023-01-21T15:27:12.069Z,16.33
2023-01-21T15:29:42.002Z,16.63
2023-01-21T15:32:30.375Z,15.88
2023-01-21T15:35:00.159Z,15.07
2023-01-21T15:40:01.099Z,15.23
2023-01-21T15:43:01.148Z,14.05
2023-01-21T15:45:40.695Z,15.50
2023-01-21T15:48:49.845Z,16.35
2023-01-21T15:51:45.526Z,17.00
2023-01-21T15:54:48.115Z,15.52
2023-01-21T15:57:52.669Z,14.75
2023-01-21T16:00:31.867Z,15.27
2023-01-21T16:03:24.164Z,14.63
2023-01-21T16:06:23.315Z,15.55
2023-01-21T16:09:05.658Z,15.68
2023-01-21T16:11:52.020Z,16.60
2023-01-21T16:14:27.042Z,15.70
2023-01-21T16:17:09.704Z,16.08
2023-01-21T16:19:43.111Z,15.50
2023-01-21T16:22:15.057Z,16.40
2023-01-21T16:24:47.589Z,17.02
2023-01-21T16:27:20.451Z,16.50
2023-01-21T16:29:48.690Z,18.67
2023-01-21T16:32:20.862Z,19.92
2023-01-21T16:34:49.488Z,18.60
2023-01-21T16:37:23.282Z,17.95
2023-01-21T16:39:54.727Z,18.48
2023-01-21T16:42:41.631Z,18.52
2023-01-21T16:45:14.301Z,19.77
2023-01-21T16:47:42.227Z,18.42
2023-01-21T16:50:25.780Z,18.48
2023-01-21T16:53:04.344Z,19.13
2023-01-21T16:55:32.044Z,19.42
2023-01-21T16:57:59.887Z,18.58
2023-01-21T17:00:32.042Z,19.02
2023-01-21T17:03:00.624Z,18.20
2023-01-21T17:05:33.193Z,19.13
2023-01-21T17:08:09.173Z,18.60
2023-01-21T17:10:52.222Z,18.40
2023-01-21T17:13:22.134Z,18.55
2023-01-21T17:15:58.164Z,17.48
2023-01-21T17:18:36.609Z,19.15
2023-01-21T17:21:09.056Z,19.75
2023-01-21T17:23:47.311Z,19.05
2023-01-21T17:26:29.519Z,19.63
2023-01-21T17:29:16.810Z,19.33
2023-01-21T17:31:45.479Z,20.83
2023-01-21T17:34:15.912Z,21.63
2023-01-21T17:36:46.166Z,19.45
2023-01-21T17:39:16.985Z,21.20
2023-01-21T17:41:46.513Z,21.33
2023-01-21T17:44:26.469Z,21.60
2023-01-21T17:47:04.085Z,20.23
2023-01-21T17:49:31.864Z,31.88
2023-01-21T17:51:59.558Z,24.92
2023-01-21T17:54:31.326Z,32.28
2023-01-21T17:57:02.765Z,22.77
2023-01-21T17:59:45.898Z,24.45
2023-01-21T18:02:19.135Z,22.02
2023-01-21T18:04:47.374Z,22.45
2023-01-21T18:07:25.301Z,22.48
2023-01-21T18:09:55.306Z,20.33
2023-01-21T18:12:22.917Z,21.45
2023-01-21T18:14:50.978Z,20.17
2023-01-21T18:17:23.814Z,19.77
2023-01-21T18:20:00.959Z,22.27
2023-01-21T18:22:32.494Z,27.52
2023-01-21T18:25:03.114Z,24.92
2023-01-21T18:27:31.117Z,23.45
2023-01-21T18:29:59.388Z,23.15
2023-01-21T18:32:27.927Z,23.75
2023-01-21T18:34:55.543Z,21.27
2023-01-21T18:37:25.341Z,22.15
2023-01-21T18:39:53.433Z,21.83
2023-01-21T18:42:26.598Z,20.95
2023-01-21T18:44:55.246Z,20.45
2023-01-21T18:47:43.547Z,18.23
2023-01-21T18:50:25.722Z,20.17
2023-01-21T18:53:00.308Z,21.70
2023-01-21T18:55:31.940Z,19.10
2023-01-21T18:58:00.205Z,19.77
2023-01-21T19:00:31.410Z,22.05
2023-01-21T19:03:01.302Z,20.20
2023-01-21T19:05:34.294Z,20.85
2023-01-21T19:08:05.579Z,20.48
2023-01-21T19:10:33.352Z,19.73
2023-01-21T19:13:01.130Z,20.35
2023-01-21T19:15:33.569Z,21.25
2023-01-21T19:18:02.179Z,21.52
2023-01-21T19:20:30.213Z,21.43
2023-01-21T19:22:58.834Z,19.27
2023-01-21T19:25:26.989Z,22.33
2023-01-21T19:27:57.761Z,21.13
2023-01-21T19:30:33.588Z,21.30
2023-01-21T19:33:07.040Z,22.00
2023-01-21T19:35:39.927Z,22.77
2023-01-21T19:38:15.553Z,22.73
2023-01-21T19:40:49.249Z,21.25
2023-01-21T19:43:21.408Z,22.05
2023-01-21T19:45:58.650Z,22.35
2023-01-21T19:48:28.746Z,21.45
2023-01-21T19:50:56.526Z,22.00
2023-01-21T19:53:24.830Z,23.25
2023-01-21T19:55:52.772Z,20.70
2023-01-21T19:58:24.035Z,21.75
2023-01-21T20:00:54.795Z,23.08
2023-01-21T20:03:29.018Z,23.52
2023-01-21T20:06:07.514Z,21.42
2023-01-21T20:08:36.663Z,19.73
2023-01-21T20:11:07.429Z,18.70
2023-01-21T20:13:39.666Z,20.20
2023-01-21T20:16:21.179Z,21.17
2023-01-21T20:18:51.815Z,20.35
2023-01-21T20:21:23.292Z,19.73
2023-01-21T20:23:51.001Z,18.50
2023-01-21T20:26:24.669Z,17.63
2023-01-21T20:28:55.361Z,19.25
2023-01-21T20:31:23.802Z,21.00
2023-01-21T20:34:00.574Z,19.75
2023-01-21T20:36:28.744Z,22.85
2023-01-21T20:38:59.634Z,20.08
2023-01-21T20:41:29.212Z,20.10
2023-01-21T20:46:30.531Z,22.85
2023-01-21T20:49:02.082Z,23.65
2023-01-21T20:51:29.831Z,23.30
2023-01-21T20:53:57.484Z,23.52
2023-01-21T20:56:26.645Z,22.33
2023-01-21T20:58:57.695Z,21.27
2023-01-21T21:01:28.885Z,22.52
2023-01-21T21:03:57.930Z,20.80
2023-01-21T21:06:31.195Z,20.25
2023-01-21T21:08:58.977Z,20.15
2023-01-21T21:11:26.680Z,20.73
2023-01-21T21:13:54.222Z,20.90
2023-01-21T21:16:28.942Z,21.00
2023-01-21T21:18:59.922Z,21.42
2023-01-21T21:21:27.820Z,19.48
2023-01-21T21:23:58.769Z,21.25
2023-01-21T21:26:31.544Z,20.52
2023-01-21T21:28:59.300Z,22.52
2023-01-21T21:31:32.684Z,21.65
2023-01-21T21:34:04.111Z,22.13
2023-01-21T21:36:31.908Z,22.95
2023-01-21T21:39:02.691Z,20.25
2023-01-21T21:41:51.801Z,19.75
2023-01-21T21:44:22.647Z,17.92
2023-01-21T21:47:09.067Z,17.63
2023-01-21T21:49:36.669Z,18.27
2023-01-21T21:52:04.414Z,17.63
2023-01-21T21:54:33.103Z,19.52
2023-01-21T21:57:00.745Z,18.38
2023-01-21T21:59:28.378Z,18.80
2023-01-21T22:01:57.623Z,17.98
2023-01-21T22:04:25.354Z,17.75
2023-01-21T22:06:52.987Z,19.25
2023-01-21T22:09:20.803Z,17.80
2023-01-21T22:11:48.481Z,18.63
2023-01-21T22:14:16.422Z,18.10
2023-01-21T22:16:44.892Z,18.75
2023-01-21T22:19:12.718Z,16.65
2023-01-21T22:21:40.840Z,17.05
2023-01-21T22:24:09.540Z,17.45
2023-01-21T22:26:37.197Z,17.50
2023-01-21T22:29:07.807Z,18.02
2023-01-21T22:31:36.270Z,17.17
2023-01-21T22:34:05.340Z,11.25
2023-01-21T22:36:38.627Z,17.15
2023-01-21T22:39:08.314Z,17.33
2023-01-21T22:41:35.989Z,14.60
2023-01-21T22:44:03.733Z,18.05
2023-01-21T22:46:31.614Z,17.80
2023-01-21T22:48:59.775Z,17.50
2023-01-21T22:51:30.992Z,18.13
2023-01-21T22:54:00.292Z,18.05
2023-01-21T22:56:49.597Z,15.15
2023-01-21T22:59:15.791Z,16.35
2023-01-21T23:01:43.537Z,15.65
2023-01-21T23:04:11.417Z,17.90
2023-01-21T23:06:39.230Z,17.05
2023-01-21T23:09:15.212Z,19.30
2023-01-21T23:11:45.083Z,14.98
2023-01-21T23:14:12.895Z,16.10
2023-01-21T23:16:40.569Z,16.90
2023-01-21T23:19:12.674Z,14.02
2023-01-21T23:21:40.973Z,15.55
2023-01-21T23:24:08.445Z,16.58
2023-01-21T23:26:37.181Z,14.38
2023-01-21T23:29:07.637Z,16.90
2023-01-21T23:31:35.496Z,15.75
2023-01-21T23:34:05.510Z,17.00
2023-01-21T23:36:33.130Z,16.73
2023-01-21T23:39:00.757Z,16.02
2023-01-21T23:41:28.655Z,15.98
2023-01-21T23:44:00.398Z,14.85
2023-01-21T23:46:28.700Z,15.85
2023-01-21T23:48:56.452Z,14.07
2023-01-21T23:51:26.705Z,15.45
2023-01-21T23:53:56.128Z,16.55
2023-01-21T23:56:25.354Z,15.38
2023-01-21T23:58:53.102Z,15.38
